createdAt,value
2022-08-11T00:00:11.055Z,0.00
2022-08-11T00:01:11.082Z,0.00
2022-08-11T00:02:15.037Z,0.00
2022-08-11T00:03:11.072Z,0.00
2022-08-11T00:04:11.010Z,0.00
2022-08-11T00:05:11.000Z,0.00
2022-08-11T00:06:10.991Z,0.00
2022-08-11T00:07:11.005Z,0.00
2022-08-11T00:08:10.967Z,0.00
2022-08-11T00:09:10.952Z,0.00
2022-08-11T00:10:10.943Z,0.00
2022-08-11T00:11:10.933Z,0.00
2022-08-11T00:12:10.946Z,0.00
2022-08-11T00:13:10.913Z,0.00
2022-08-11T00:14:11.901Z,0.00
2022-08-11T00:15:10.894Z,0.00
2022-08-11T00:16:10.879Z,0.00
2022-08-11T00:17:11.031Z,0.00
2022-08-11T00:18:10.862Z,0.00
2022-08-11T00:19:10.845Z,0.00
2022-08-11T00:20:11.560Z,0.00
2022-08-11T00:21:10.831Z,0.00
2022-08-11T00:22:10.816Z,0.00
2022-08-11T00:23:10.845Z,0.00
2022-08-11T00:24:10.797Z,0.00
2022-08-11T00:25:10.789Z,0.00
2022-08-11T00:26:10.776Z,0.00
2022-08-11T00:27:10.819Z,0.00
2022-08-11T00:28:10.751Z,0.00
2022-08-11T00:29:10.738Z,0.00
2022-08-11T00:30:10.735Z,0.00
2022-08-11T00:31:10.720Z,0.00
2022-08-11T00:32:10.741Z,0.00
2022-08-11T00:33:10.701Z,0.00
2022-08-11T00:34:10.690Z,0.00
2022-08-11T00:35:55.833Z,0.00
2022-08-11T00:36:11.665Z,0.00
2022-08-11T00:37:10.706Z,0.00
2022-08-11T00:38:10.648Z,0.00
2022-08-11T00:39:10.690Z,0.00
2022-08-11T00:40:10.631Z,0.00
2022-08-11T00:41:10.613Z,0.00
2022-08-11T00:42:10.617Z,0.00
2022-08-11T00:43:10.853Z,0.00
2022-08-11T00:44:11.606Z,0.00
2022-08-11T00:45:10.571Z,0.00
2022-08-11T00:46:10.560Z,0.00
2022-08-11T00:47:10.577Z,0.00
2022-08-11T00:48:10.554Z,0.00
2022-08-11T00:49:11.976Z,0.00
2022-08-11T00:50:10.516Z,0.00
2022-08-11T00:51:10.511Z,0.00
2022-08-11T00:52:10.491Z,0.00
2022-08-11T00:53:10.517Z,0.00
2022-08-11T00:54:10.625Z,0.00
2022-08-11T00:55:10.466Z,0.00
2022-08-11T00:56:10.453Z,0.00
2022-08-11T00:57:36.205Z,0.00
2022-08-11T00:58:11.433Z,0.00
2022-08-11T00:59:34.050Z,0.00
2022-08-11T01:00:11.436Z,0.00
2022-08-11T01:01:10.550Z,0.00
2022-08-11T01:02:10.389Z,0.00
2022-08-11T01:03:10.374Z,0.00
2022-08-11T01:04:10.366Z,0.00
2022-08-11T01:05:10.392Z,0.00
2022-08-11T01:06:10.347Z,0.00
2022-08-11T01:07:10.331Z,0.00
2022-08-11T01:08:10.323Z,0.00
2022-08-11T01:09:10.314Z,0.00
2022-08-11T01:10:11.377Z,0.00
2022-08-11T01:11:10.307Z,0.00
2022-08-11T01:12:10.276Z,0.00
2022-08-11T01:13:10.263Z,0.00
2022-08-11T01:14:10.253Z,0.00
2022-08-11T01:15:10.268Z,0.00
2022-08-11T01:16:10.238Z,0.00
2022-08-11T01:17:10.226Z,0.00
2022-08-11T01:18:10.217Z,0.00
2022-08-11T01:19:10.197Z,0.00
2022-08-11T01:20:47.481Z,0.00
2022-08-11T01:21:11.201Z,0.00
2022-08-11T01:22:10.169Z,0.00
2022-08-11T01:23:12.565Z,0.00
2022-08-11T01:24:11.147Z,0.00
2022-08-11T01:25:10.165Z,0.00
2022-08-11T01:26:10.127Z,0.00
2022-08-11T01:27:19.210Z,0.00
2022-08-11T01:28:11.100Z,0.00
2022-08-11T01:29:10.092Z,0.00
2022-08-11T01:30:10.330Z,0.00
2022-08-11T01:31:10.077Z,0.00
2022-08-11T01:32:10.057Z,0.00
2022-08-11T01:33:10.047Z,0.00
2022-08-11T01:34:10.035Z,0.00
2022-08-11T01:35:10.033Z,0.00
2022-08-11T01:36:10.079Z,0.00
2022-08-11T01:37:10.015Z,0.00
2022-08-11T01:38:09.990Z,0.00
2022-08-11T01:39:10.007Z,0.00
2022-08-11T01:40:09.974Z,0.00
2022-08-11T01:41:10.179Z,0.00
2022-08-11T01:42:09.951Z,0.00
2022-08-11T01:43:09.935Z,0.00
2022-08-11T01:44:13.126Z,0.00
2022-08-11T01:45:09.918Z,0.00
2022-08-11T01:46:09.931Z,0.00
2022-08-11T01:47:09.893Z,0.00
2022-08-11T01:48:09.879Z,0.00
2022-08-11T01:50:07.248Z,0.00
2022-08-11T01:50:10.968Z,0.00
2022-08-11T01:51:09.873Z,0.00
2022-08-11T01:52:10.838Z,0.00
2022-08-11T01:53:09.824Z,0.00
2022-08-11T01:54:09.816Z,0.00
2022-08-11T01:55:09.851Z,0.00
2022-08-11T01:56:09.797Z,0.00
2022-08-11T01:57:09.797Z,0.00
2022-08-11T01:58:09.781Z,0.00
2022-08-11T01:59:09.756Z,0.00
2022-08-11T02:00:09.752Z,0.00
2022-08-11T02:01:09.880Z,0.00
2022-08-11T02:02:09.724Z,0.00
2022-08-11T02:03:10.715Z,0.00
2022-08-11T02:04:09.712Z,0.00
2022-08-11T02:05:09.697Z,0.00
2022-08-11T02:06:09.713Z,0.00
2022-08-11T02:07:09.673Z,0.00
2022-08-11T02:08:09.828Z,0.00
2022-08-11T02:09:09.673Z,0.00
2022-08-11T02:10:09.644Z,0.00
2022-08-11T02:11:12.700Z,0.00
2022-08-11T02:12:09.620Z,0.00
2022-08-11T02:13:09.623Z,0.00
2022-08-11T02:14:09.599Z,0.00
2022-08-11T02:15:09.618Z,0.00
2022-08-11T02:16:09.575Z,0.00
2022-08-11T02:17:09.601Z,0.00
2022-08-11T02:18:09.554Z,0.00
2022-08-11T02:19:09.537Z,0.00
2022-08-11T02:20:09.529Z,0.00
2022-08-11T02:21:09.514Z,0.00
2022-08-11T02:22:09.506Z,0.00
2022-08-11T02:23:09.529Z,0.00
2022-08-11T02:24:09.482Z,0.00
2022-08-11T02:25:09.480Z,0.00
2022-08-11T02:26:09.464Z,0.00
2022-08-11T02:27:09.453Z,0.00
2022-08-11T02:28:09.484Z,0.00
2022-08-11T02:29:09.432Z,0.00
2022-08-11T02:30:09.422Z,0.00
2022-08-11T02:31:09.428Z,0.00
2022-08-11T02:32:24.779Z,0.00
2022-08-11T02:33:10.383Z,0.00
2022-08-11T02:34:09.377Z,0.00
2022-08-11T02:35:09.368Z,0.00
2022-08-11T02:36:09.358Z,0.00
2022-08-11T02:37:09.383Z,0.00
2022-08-11T02:38:09.332Z,0.00
2022-08-11T02:39:09.414Z,0.00
2022-08-11T02:40:09.312Z,0.00
2022-08-11T02:41:09.299Z,0.00
2022-08-11T02:42:33.409Z,0.00
2022-08-11T02:43:10.353Z,0.00
2022-08-11T02:44:09.264Z,0.00
2022-08-11T02:45:09.268Z,0.00
2022-08-11T02:46:09.270Z,0.00
2022-08-11T02:47:10.232Z,0.00
2022-08-11T02:48:09.225Z,0.00
2022-08-11T02:49:09.212Z,0.00
2022-08-11T02:50:09.207Z,0.00
2022-08-11T02:51:09.220Z,0.00
2022-08-11T02:52:09.182Z,0.00
2022-08-11T02:53:09.166Z,0.00
2022-08-11T02:54:09.159Z,0.00
2022-08-11T02:55:12.390Z,0.00
2022-08-11T02:56:10.136Z,0.00
2022-08-11T02:57:11.309Z,0.00
2022-08-11T02:58:09.112Z,0.00
2022-08-11T02:59:09.098Z,0.00
2022-08-11T03:00:09.102Z,0.00
2022-08-11T03:01:09.118Z,0.00
2022-08-11T03:02:09.138Z,0.00
2022-08-11T03:03:09.055Z,0.00
2022-08-11T03:04:09.054Z,0.00
2022-08-11T03:05:09.043Z,0.00
2022-08-11T03:06:09.061Z,0.00
2022-08-11T03:07:28.903Z,0.00
2022-08-11T03:08:10.006Z,0.00
2022-08-11T03:09:08.996Z,0.00
2022-08-11T03:10:08.985Z,0.00
2022-08-11T03:11:08.976Z,0.00
2022-08-11T03:12:08.997Z,0.00
2022-08-11T03:13:08.949Z,0.00
2022-08-11T03:14:08.939Z,0.00
2022-08-11T03:15:08.928Z,0.00
2022-08-11T03:16:08.922Z,0.00
2022-08-11T03:17:08.942Z,0.00
2022-08-11T03:18:08.897Z,0.00
2022-08-11T03:19:08.888Z,0.00
2022-08-11T03:20:08.877Z,0.00
2022-08-11T03:21:08.869Z,0.00
2022-08-11T03:22:08.883Z,0.00
2022-08-11T03:23:19.635Z,0.00
2022-08-11T03:24:09.829Z,0.00
2022-08-11T03:25:12.893Z,4.00
2022-08-11T03:26:10.419Z,4.00
2022-08-11T03:27:08.804Z,0.00
2022-08-11T03:28:08.785Z,0.00
2022-08-11T03:29:08.781Z,0.00
2022-08-11T03:30:08.768Z,0.00
2022-08-11T03:31:08.817Z,4.00
2022-08-11T03:32:08.742Z,4.00
2022-08-11T03:33:08.739Z,4.00
2022-08-11T03:34:08.726Z,0.00
2022-08-11T03:35:08.710Z,0.00
2022-08-11T03:36:08.705Z,4.00
2022-08-11T03:37:16.005Z,4.00
2022-08-11T03:38:09.678Z,4.00
2022-08-11T03:39:08.722Z,4.00
2022-08-11T03:40:08.666Z,4.00
2022-08-11T03:41:50.394Z,4.00
2022-08-11T03:42:10.401Z,8.00
2022-08-11T03:43:08.621Z,4.00
2022-08-11T03:44:08.632Z,4.00
2022-08-11T03:45:08.599Z,8.00
2022-08-11T03:46:08.590Z,4.00
2022-08-11T03:47:08.607Z,8.00
2022-08-11T03:48:08.565Z,8.00
2022-08-11T03:49:08.560Z,8.00
2022-08-11T03:50:08.552Z,8.00
2022-08-11T03:51:08.565Z,12.00
2022-08-11T03:52:08.531Z,8.00
2022-08-11T03:53:08.514Z,12.00
2022-08-11T03:54:08.501Z,12.00
2022-08-11T03:55:08.485Z,12.00
2022-08-11T03:56:08.507Z,12.00
2022-08-11T03:57:08.472Z,12.00
2022-08-11T03:58:08.455Z,12.00
2022-08-11T03:59:08.449Z,16.00
2022-08-11T04:00:08.436Z,12.00
2022-08-11T04:01:08.472Z,16.00
2022-08-11T04:02:08.415Z,16.00
2022-08-11T04:03:08.406Z,16.00
2022-08-11T04:04:08.393Z,16.00
2022-08-11T04:05:08.378Z,20.00
2022-08-11T04:06:08.419Z,16.00
2022-08-11T04:07:08.364Z,20.00
2022-08-11T04:08:08.350Z,20.00
2022-08-11T04:09:08.343Z,20.00
2022-08-11T04:10:08.327Z,24.00
2022-08-11T04:11:08.345Z,20.00
2022-08-11T04:12:08.301Z,24.00
2022-08-11T04:13:09.288Z,24.00
2022-08-11T04:14:08.275Z,24.00
2022-08-11T04:15:08.269Z,28.00
2022-08-11T04:16:12.417Z,24.00
2022-08-11T04:17:08.252Z,24.00
2022-08-11T04:18:08.237Z,24.00
2022-08-11T04:19:08.247Z,28.00
2022-08-11T04:20:08.211Z,28.00
2022-08-11T04:21:08.228Z,32.00
2022-08-11T04:22:08.194Z,28.00
2022-08-11T04:23:08.177Z,28.00
2022-08-11T04:24:37.236Z,28.00
2022-08-11T04:25:09.158Z,32.00
2022-08-11T04:26:15.919Z,32.00
2022-08-11T04:27:13.279Z,32.00
2022-08-11T04:28:09.123Z,36.00
2022-08-11T04:29:09.431Z,32.00
2022-08-11T04:30:09.215Z,36.00
2022-08-11T04:31:08.114Z,36.00
2022-08-11T04:32:08.079Z,40.00
2022-08-11T04:33:08.080Z,36.00
2022-08-11T04:34:08.060Z,36.00
2022-08-11T04:35:08.083Z,36.00
2022-08-11T04:36:08.042Z,40.00
2022-08-11T04:37:08.025Z,40.00
2022-08-11T04:38:08.024Z,40.00
2022-08-11T04:39:08.102Z,44.00
2022-08-11T04:40:08.021Z,44.00
2022-08-11T04:41:07.985Z,44.00
2022-08-11T04:42:07.971Z,44.00
2022-08-11T04:43:07.956Z,48.00
2022-08-11T04:44:07.954Z,44.00
2022-08-11T04:45:07.977Z,48.00
2022-08-11T04:46:07.925Z,48.00
2022-08-11T04:47:07.917Z,48.00
2022-08-11T04:48:07.898Z,48.00
2022-08-11T04:49:07.894Z,52.00
2022-08-11T04:50:07.882Z,56.00
2022-08-11T04:51:16.573Z,56.00
2022-08-11T04:52:08.861Z,56.00
2022-08-11T04:53:07.846Z,56.00
2022-08-11T04:54:07.834Z,60.00
2022-08-11T04:55:07.830Z,60.00
2022-08-11T04:56:07.876Z,64.00
2022-08-11T04:57:07.803Z,64.00
2022-08-11T04:58:07.797Z,64.00
2022-08-11T04:59:07.785Z,68.00
2022-08-11T05:00:07.765Z,68.00
2022-08-11T05:01:07.786Z,68.00
2022-08-11T05:02:16.922Z,68.00
2022-08-11T05:03:08.735Z,68.00
2022-08-11T05:04:07.719Z,72.00
2022-08-11T05:05:07.717Z,76.00
2022-08-11T05:06:07.699Z,76.00
2022-08-11T05:07:07.691Z,80.00
2022-08-11T05:08:07.733Z,80.00
2022-08-11T05:09:07.664Z,80.00
2022-08-11T05:10:07.686Z,80.00
2022-08-11T05:11:07.674Z,84.00
2022-08-11T05:12:07.632Z,84.00
2022-08-11T05:13:07.648Z,84.00
2022-08-11T05:14:07.611Z,84.00
2022-08-11T05:15:07.636Z,88.00
2022-08-11T05:16:07.593Z,88.00
2022-08-11T05:17:07.583Z,88.00
2022-08-11T05:18:07.562Z,88.00
2022-08-11T05:19:07.561Z,88.00
2022-08-11T05:20:07.590Z,92.00
2022-08-11T05:21:07.549Z,92.00
2022-08-11T05:22:07.523Z,92.00
2022-08-11T05:23:07.513Z,92.00
2022-08-11T05:24:07.660Z,92.00
2022-08-11T05:25:07.492Z,96.00
2022-08-11T05:26:25.523Z,96.00
2022-08-11T05:27:13.331Z,100.00
2022-08-11T05:28:08.796Z,96.00
2022-08-11T05:29:08.301Z,96.00
2022-08-11T05:30:08.436Z,100.00
2022-08-11T05:31:07.606Z,100.00
2022-08-11T05:32:07.412Z,100.00
2022-08-11T05:33:07.402Z,100.00
2022-08-11T05:34:07.389Z,104.00
2022-08-11T05:35:07.376Z,104.00
2022-08-11T05:36:07.374Z,100.00
2022-08-11T05:37:26.249Z,104.00
2022-08-11T05:38:08.346Z,108.00
2022-08-11T05:39:07.388Z,104.00
2022-08-11T05:40:07.383Z,108.00
2022-08-11T05:41:07.312Z,108.00
2022-08-11T05:42:07.337Z,108.00
2022-08-11T05:43:07.299Z,112.00
2022-08-11T05:44:20.653Z,112.00
2022-08-11T05:45:15.326Z,112.00
2022-08-11T05:46:13.121Z,112.00
2022-08-11T05:47:08.253Z,116.00
2022-08-11T05:48:07.235Z,116.00
2022-08-11T05:49:07.220Z,116.00
2022-08-11T05:50:07.264Z,116.00
2022-08-11T05:51:10.540Z,116.00
2022-08-11T05:52:16.296Z,116.00
2022-08-11T05:53:09.256Z,120.00
2022-08-11T05:54:07.183Z,116.00
2022-08-11T05:55:08.335Z,116.00
2022-08-11T05:56:07.145Z,120.00
2022-08-11T05:57:07.134Z,120.00
2022-08-11T05:58:07.127Z,120.00
2022-08-11T05:59:07.113Z,120.00
2022-08-11T06:00:07.129Z,120.00
2022-08-11T06:01:07.141Z,124.00
2022-08-11T06:02:07.085Z,128.00
2022-08-11T06:03:07.067Z,124.00
2022-08-11T06:04:07.062Z,124.00
2022-08-11T06:05:07.103Z,128.00
2022-08-11T06:06:07.037Z,128.00
2022-08-11T06:07:07.027Z,128.00
2022-08-11T06:08:07.041Z,132.00
2022-08-11T06:09:07.015Z,132.00
2022-08-11T06:10:07.006Z,132.00
2022-08-11T06:11:06.985Z,132.00
2022-08-11T06:12:06.965Z,132.00
2022-08-11T06:13:06.995Z,132.00
2022-08-11T06:14:06.952Z,132.00
2022-08-11T06:15:06.947Z,136.00
2022-08-11T06:16:07.321Z,136.00
2022-08-11T06:17:06.914Z,136.00
2022-08-11T06:18:06.953Z,136.00
2022-08-11T06:19:06.893Z,140.00
2022-08-11T06:20:07.667Z,140.00
2022-08-11T06:21:06.879Z,140.00
2022-08-11T06:22:06.875Z,144.00
2022-08-11T06:23:06.898Z,144.00
2022-08-11T06:24:06.841Z,144.00
2022-08-11T06:25:06.826Z,144.00
2022-08-11T06:26:06.818Z,144.00
2022-08-11T06:27:12.837Z,144.00
2022-08-11T06:28:07.832Z,148.00
2022-08-11T06:29:06.787Z,144.00
2022-08-11T06:30:06.773Z,148.00
2022-08-11T06:31:06.764Z,148.00
2022-08-11T06:32:06.749Z,148.00
2022-08-11T06:33:06.748Z,152.00
2022-08-11T06:34:06.926Z,148.00
2022-08-11T06:35:06.720Z,152.00
2022-08-11T06:36:06.750Z,152.00
2022-08-11T06:37:06.699Z,156.00
2022-08-11T06:38:06.690Z,152.00
2022-08-11T06:39:06.681Z,156.00
2022-08-11T06:40:06.668Z,156.00
2022-08-11T06:41:06.685Z,160.00
2022-08-11T06:42:06.641Z,160.00
2022-08-11T06:43:06.659Z,160.00
2022-08-11T06:44:06.627Z,160.00
2022-08-11T06:45:06.610Z,160.00
2022-08-11T06:46:06.603Z,164.00
2022-08-11T06:47:06.587Z,164.00
2022-08-11T06:48:06.625Z,164.00
2022-08-11T06:49:06.566Z,164.00
2022-08-11T06:50:06.551Z,164.00
2022-08-11T06:51:06.547Z,168.00
2022-08-11T06:52:06.534Z,168.00
2022-08-11T06:53:06.527Z,168.00
2022-08-11T06:54:06.806Z,172.00
2022-08-11T06:55:06.544Z,172.00
2022-08-11T06:56:06.488Z,172.00
2022-08-11T06:57:28.911Z,172.00
2022-08-11T06:58:07.466Z,172.00
2022-08-11T06:59:08.659Z,176.00
2022-08-11T07:00:06.443Z,172.00
2022-08-11T07:01:06.483Z,176.00
2022-08-11T07:02:06.424Z,176.00
2022-08-11T07:03:06.417Z,176.00
2022-08-11T07:04:06.406Z,176.00
2022-08-11T07:05:06.555Z,176.00
2022-08-11T07:06:06.384Z,180.00
2022-08-11T07:07:06.365Z,180.00
2022-08-11T07:08:33.900Z,188.00
2022-08-11T07:09:07.350Z,188.00
2022-08-11T07:10:06.340Z,188.00
2022-08-11T07:11:09.480Z,188.00
2022-08-11T07:12:06.316Z,192.00
2022-08-11T07:13:06.307Z,192.00
2022-08-11T07:14:06.292Z,192.00
2022-08-11T07:15:06.285Z,192.00
2022-08-11T07:16:11.576Z,196.00
2022-08-11T07:17:07.330Z,196.00
2022-08-11T07:18:06.252Z,196.00
2022-08-11T07:19:06.244Z,200.00
2022-08-11T07:20:06.226Z,200.00
2022-08-11T07:21:06.219Z,204.00
2022-08-11T07:22:07.206Z,204.00
2022-08-11T07:23:06.242Z,204.00
2022-08-11T07:24:06.179Z,208.00
2022-08-11T07:25:06.174Z,208.00
2022-08-11T07:26:06.164Z,208.00
2022-08-11T07:27:06.150Z,208.00
2022-08-11T07:28:06.187Z,216.00
2022-08-11T07:29:06.128Z,216.00
2022-08-11T07:30:06.115Z,216.00
2022-08-11T07:31:06.106Z,216.00
2022-08-11T07:32:06.095Z,216.00
2022-08-11T07:33:06.405Z,220.00
2022-08-11T07:34:11.190Z,220.00
2022-08-11T07:35:07.068Z,220.00
2022-08-11T07:36:06.205Z,216.00
2022-08-11T07:37:06.046Z,220.00
2022-08-11T07:38:07.272Z,220.00
2022-08-11T07:39:06.023Z,220.00
2022-08-11T07:40:06.010Z,220.00
2022-08-11T07:41:06.001Z,220.00
2022-08-11T07:42:06.025Z,224.00
2022-08-11T07:43:05.983Z,224.00
2022-08-11T07:44:05.963Z,228.00
2022-08-11T07:45:05.956Z,232.00
2022-08-11T07:46:05.944Z,236.00
2022-08-11T07:47:06.106Z,240.00
2022-08-11T07:48:05.930Z,244.00
2022-08-11T07:49:05.912Z,244.00
2022-08-11T07:50:05.908Z,244.00
2022-08-11T07:51:05.898Z,248.00
2022-08-11T07:52:05.883Z,244.00
2022-08-11T07:53:05.912Z,244.00
2022-08-11T07:54:16.511Z,248.00
2022-08-11T07:55:08.532Z,252.00
2022-08-11T07:56:05.833Z,252.00
2022-08-11T07:57:09.120Z,252.00
2022-08-11T07:58:16.678Z,256.00
2022-08-11T07:59:08.377Z,256.00
2022-08-11T08:00:05.812Z,260.00
2022-08-11T08:01:10.293Z,260.00
2022-08-11T08:02:06.862Z,260.00
2022-08-11T08:03:05.757Z,268.00
2022-08-11T08:04:05.745Z,268.00
2022-08-11T08:05:05.733Z,268.00
2022-08-11T08:06:05.722Z,264.00
2022-08-11T08:07:06.711Z,260.00
2022-08-11T08:08:05.732Z,256.00
2022-08-11T08:09:05.690Z,256.00
2022-08-11T08:10:05.678Z,248.00
2022-08-11T08:11:05.669Z,248.00
2022-08-11T08:12:05.718Z,244.00
2022-08-11T08:13:05.647Z,244.00
2022-08-11T08:14:05.631Z,248.00
2022-08-11T08:15:05.624Z,256.00
2022-08-11T08:16:05.616Z,256.00
2022-08-11T08:17:05.606Z,256.00
2022-08-11T08:18:20.512Z,260.00
2022-08-11T08:19:06.580Z,264.00
2022-08-11T08:20:05.571Z,264.00
2022-08-11T08:21:05.557Z,264.00
2022-08-11T08:22:37.386Z,276.00
2022-08-11T08:23:06.570Z,280.00
2022-08-11T08:24:05.527Z,276.00
2022-08-11T08:25:05.518Z,276.00
2022-08-11T08:26:05.514Z,272.00
2022-08-11T08:27:05.494Z,268.00
2022-08-11T08:28:05.514Z,260.00
2022-08-11T08:29:05.481Z,264.00
2022-08-11T08:30:05.462Z,268.00
2022-08-11T08:31:05.453Z,272.00
2022-08-11T08:32:05.446Z,276.00
2022-08-11T08:33:05.462Z,280.00
2022-08-11T08:34:05.420Z,276.00
2022-08-11T08:35:05.414Z,244.00
2022-08-11T08:36:05.400Z,284.00
2022-08-11T08:37:15.819Z,284.00
2022-08-11T08:38:06.378Z,280.00
2022-08-11T08:39:05.365Z,292.00
2022-08-11T08:40:05.360Z,304.00
2022-08-11T08:41:05.344Z,304.00
2022-08-11T08:42:05.331Z,308.00
2022-08-11T08:43:05.364Z,320.00
2022-08-11T08:45:06.302Z,332.00
2022-08-11T08:46:05.292Z,420.00
2022-08-11T08:47:05.285Z,624.00
2022-08-11T08:48:05.451Z,680.00
2022-08-11T08:49:05.263Z,524.00
2022-08-11T08:50:05.249Z,468.00
2022-08-11T08:51:05.240Z,484.00
2022-08-11T08:52:42.682Z,388.00
2022-08-11T08:53:09.431Z,368.00
2022-08-11T08:54:05.207Z,480.00
2022-08-11T08:55:05.195Z,628.00
2022-08-11T08:56:05.181Z,548.00
2022-08-11T08:57:05.251Z,540.00
2022-08-11T08:58:05.189Z,732.00
2022-08-11T08:59:05.151Z,904.00
2022-08-11T09:00:05.156Z,1168.00
2022-08-11T09:01:05.162Z,1372.00
2022-08-11T09:02:05.118Z,1244.00
2022-08-11T09:03:22.805Z,1072.00
2022-08-11T09:04:11.449Z,844.00
2022-08-11T09:05:06.084Z,816.00
2022-08-11T09:06:05.076Z,1620.00
2022-08-11T09:07:05.068Z,1736.00
2022-08-11T09:08:05.053Z,3660.00
2022-08-11T09:09:05.073Z,4188.00
2022-08-11T09:10:05.038Z,7688.00
2022-08-11T09:11:05.030Z,13260.00
2022-08-11T09:12:05.017Z,33376.00
2022-08-11T09:13:05.005Z,39520.00
2022-08-11T09:14:07.549Z,24064.00
2022-08-11T09:15:05.982Z,31328.00
2022-08-11T09:16:04.970Z,39200.00
2022-08-11T09:17:04.961Z,51840.00
2022-08-11T09:18:04.950Z,38976.00
2022-08-11T09:19:04.979Z,27968.00
2022-08-11T09:20:04.933Z,34592.00
2022-08-11T09:21:04.917Z,41856.00
2022-08-11T09:22:04.908Z,48960.00
2022-08-11T09:24:16.909Z,26496.00
2022-08-11T09:25:05.896Z,10776.00
2022-08-11T09:26:04.870Z,11568.00
2022-08-11T09:27:04.858Z,8188.00
2022-08-11T09:28:04.854Z,5448.00
2022-08-11T09:29:04.866Z,2668.00
2022-08-11T09:30:04.868Z,3016.00
2022-08-11T09:31:04.809Z,5620.00
2022-08-11T09:32:04.797Z,960.00
2022-08-11T09:33:04.799Z,836.00
2022-08-11T09:34:04.777Z,6136.00
2022-08-11T09:35:04.820Z,3536.00
2022-08-11T09:36:04.758Z,1140.00
2022-08-11T09:37:04.747Z,6136.00
2022-08-11T09:38:04.736Z,2552.00
2022-08-11T09:39:04.721Z,1880.00
2022-08-11T09:40:04.717Z,784.00
2022-08-11T09:41:04.736Z,628.00
2022-08-11T09:42:04.695Z,672.00
2022-08-11T09:43:04.683Z,900.00
2022-08-11T09:44:04.728Z,796.00
2022-08-11T09:45:04.700Z,800.00
2022-08-11T09:46:04.649Z,824.00
2022-08-11T09:47:04.642Z,760.00
2022-08-11T09:48:04.629Z,1024.00
2022-08-11T09:49:04.624Z,972.00
2022-08-11T09:50:04.642Z,2404.00
2022-08-11T09:51:04.603Z,616.00
2022-08-11T09:52:05.398Z,1072.00
2022-08-11T09:53:36.456Z,1060.00
2022-08-11T09:54:05.566Z,400.00
2022-08-11T09:55:04.601Z,392.00
2022-08-11T09:56:04.588Z,396.00
2022-08-11T09:57:05.491Z,1144.00
2022-08-11T09:58:04.526Z,1604.00
2022-08-11T09:59:04.521Z,548.00
2022-08-11T10:00:12.578Z,428.00
2022-08-11T10:01:05.620Z,456.00
2022-08-11T10:02:04.485Z,540.00
2022-08-11T10:03:04.469Z,540.00
2022-08-11T10:04:04.463Z,656.00
2022-08-11T10:05:04.447Z,656.00
2022-08-11T10:06:07.919Z,660.00
2022-08-11T10:07:05.132Z,692.00
2022-08-11T10:08:04.418Z,2664.00
2022-08-11T10:09:04.412Z,3308.00
2022-08-11T10:10:04.399Z,2972.00
2022-08-11T10:11:04.408Z,3608.00
2022-08-11T10:12:04.373Z,3192.00
2022-08-11T10:13:04.375Z,16896.00
2022-08-11T10:14:32.565Z,28960.00
2022-08-11T10:15:05.340Z,21440.00
2022-08-11T10:16:15.426Z,24704.00
2022-08-11T10:17:05.319Z,16064.00
2022-08-11T10:18:04.317Z,41472.00
2022-08-11T10:19:04.297Z,50464.00
2022-08-11T10:20:05.921Z,58976.00
2022-08-11T10:21:04.315Z,60704.00
2022-08-11T10:22:04.272Z,68096.00
2022-08-11T10:23:04.255Z,70144.00
2022-08-11T10:24:05.924Z,72672.00
2022-08-11T10:26:14.131Z,75776.00
2022-08-11T10:27:14.122Z,78304.00
2022-08-11T10:28:33.717Z,58432.00
2022-08-11T10:29:15.384Z,11604.00
2022-08-11T10:30:14.089Z,6328.00
2022-08-11T10:31:14.098Z,2108.00
2022-08-11T10:32:14.074Z,52448.00
2022-08-11T10:33:36.480Z,43936.00
2022-08-11T10:34:15.040Z,39552.00
2022-08-11T10:35:14.039Z,22688.00
2022-08-11T10:36:16.713Z,22176.00
2022-08-11T10:37:15.086Z,36160.00
2022-08-11T10:38:14.046Z,35200.00
2022-08-11T10:39:14.047Z,27584.00
2022-08-11T10:40:13.988Z,34688.00
2022-08-11T10:41:13.977Z,47072.00
2022-08-11T10:42:25.618Z,54528.00
2022-08-11T10:44:01.861Z,36704.00
2022-08-11T10:44:14.948Z,7172.00
2022-08-11T10:45:13.937Z,9464.00
2022-08-11T10:46:13.930Z,28544.00
2022-08-11T10:47:13.920Z,41600.00
2022-08-11T10:48:15.594Z,31520.00
2022-08-11T10:49:13.896Z,19104.00
2022-08-11T10:50:13.883Z,21792.00
2022-08-11T10:51:13.907Z,17792.00
2022-08-11T10:52:13.866Z,15904.00
2022-08-11T10:53:13.855Z,4988.00
2022-08-11T10:54:13.874Z,2728.00
2022-08-11T10:55:13.838Z,2648.00
2022-08-11T10:56:13.826Z,856.00
2022-08-11T10:57:13.817Z,2548.00
2022-08-11T10:58:13.830Z,18196.00
2022-08-11T10:59:13.881Z,1944.00
2022-08-11T11:00:13.788Z,2756.00
2022-08-11T11:01:13.799Z,1684.00
2022-08-11T11:02:13.767Z,5188.00
2022-08-11T11:03:23.761Z,5040.00
2022-08-11T11:04:14.774Z,4048.00
2022-08-11T11:05:13.734Z,8320.00
2022-08-11T11:06:28.369Z,3056.00
2022-08-11T11:07:14.715Z,1320.00
2022-08-11T11:08:13.705Z,1776.00
2022-08-11T11:09:13.693Z,2928.00
2022-08-11T11:10:13.721Z,1296.00
2022-08-11T11:11:18.387Z,996.00
2022-08-11T11:12:13.671Z,980.00
2022-08-11T11:13:13.649Z,1004.00
2022-08-11T11:14:13.838Z,1192.00
2022-08-11T11:15:17.685Z,6528.00
2022-08-11T11:16:13.627Z,11600.00
2022-08-11T11:17:14.162Z,3428.00
2022-08-11T11:18:13.602Z,1744.00
2022-08-11T11:19:13.598Z,10144.00
2022-08-11T11:20:35.853Z,15616.00
2022-08-11T11:21:14.587Z,7800.00
2022-08-11T11:22:13.567Z,4044.00
2022-08-11T11:23:13.558Z,2696.00
2022-08-11T11:24:13.546Z,1892.00
2022-08-11T11:25:13.564Z,1176.00
2022-08-11T11:26:13.521Z,1248.00
2022-08-11T11:27:13.513Z,1108.00
2022-08-11T11:28:13.502Z,1032.00
2022-08-11T11:29:13.494Z,892.00
2022-08-11T11:30:13.589Z,744.00
2022-08-11T11:31:15.614Z,688.00
2022-08-11T11:32:13.460Z,656.00
2022-08-11T11:33:13.456Z,680.00
2022-08-11T11:34:13.482Z,676.00
2022-08-11T11:35:13.435Z,664.00
2022-08-11T11:36:13.421Z,684.00
2022-08-11T11:37:13.419Z,692.00
2022-08-11T11:38:14.332Z,656.00
2022-08-11T11:39:13.499Z,664.00
2022-08-11T11:40:13.468Z,648.00
2022-08-11T11:41:13.368Z,652.00
2022-08-11T11:42:13.363Z,776.00
2022-08-11T11:43:13.352Z,668.00
2022-08-11T11:44:13.342Z,628.00
2022-08-11T11:45:22.822Z,636.00
2022-08-11T11:46:14.318Z,584.00
2022-08-11T11:47:13.313Z,624.00
2022-08-11T11:48:13.307Z,660.00
2022-08-11T11:49:16.846Z,736.00
2022-08-11T11:50:13.570Z,840.00
2022-08-11T11:51:13.270Z,884.00
2022-08-11T11:52:13.258Z,936.00
2022-08-11T11:53:13.243Z,988.00
2022-08-11T11:54:13.239Z,908.00
2022-08-11T11:55:13.290Z,984.00
2022-08-11T11:56:13.410Z,1064.00
2022-08-11T11:57:13.206Z,1072.00
2022-08-11T11:58:15.966Z,1044.00
2022-08-11T11:59:14.675Z,960.00
2022-08-11T12:00:13.179Z,968.00
2022-08-11T12:01:13.180Z,1020.00
2022-08-11T12:02:13.166Z,1028.00
2022-08-11T12:03:13.269Z,1136.00
2022-08-11T12:04:13.167Z,1176.00
2022-08-11T12:05:13.128Z,1236.00
2022-08-11T12:06:13.158Z,1236.00
2022-08-11T12:07:13.117Z,1100.00
2022-08-11T12:08:13.486Z,1088.00
2022-08-11T12:09:13.122Z,936.00
2022-08-11T12:10:13.079Z,824.00
2022-08-11T12:11:13.071Z,860.00
2022-08-11T12:12:13.059Z,912.00
2022-08-11T12:13:13.051Z,508.00
2022-08-11T12:14:13.083Z,424.00
2022-08-11T12:15:13.033Z,580.00
2022-08-11T12:16:32.773Z,760.00
2022-08-11T12:17:14.040Z,644.00
2022-08-11T12:18:13.004Z,732.00
2022-08-11T12:19:13.011Z,736.00
2022-08-11T12:20:16.887Z,676.00
2022-08-11T12:21:14.129Z,608.00
2022-08-11T12:22:12.962Z,616.00
2022-08-11T12:23:14.610Z,600.00
2022-08-11T12:24:12.945Z,612.00
2022-08-11T12:25:12.924Z,608.00
2022-08-11T12:26:28.180Z,604.00
2022-08-11T12:27:17.037Z,620.00
2022-08-11T12:28:12.905Z,616.00
2022-08-11T12:29:12.891Z,600.00
2022-08-11T12:30:12.878Z,588.00
2022-08-11T12:31:12.869Z,548.00
2022-08-11T12:32:12.895Z,532.00
2022-08-11T12:33:12.850Z,552.00
2022-08-11T12:34:12.840Z,540.00
2022-08-11T12:35:12.835Z,536.00
2022-08-11T12:36:12.868Z,520.00
2022-08-11T12:37:13.230Z,508.00
2022-08-11T12:38:12.937Z,496.00
2022-08-11T12:39:22.998Z,504.00
2022-08-11T12:40:42.580Z,500.00
2022-08-11T12:41:16.426Z,484.00
2022-08-11T12:42:12.806Z,464.00
2022-08-11T12:43:21.220Z,460.00